sensor_id;sensor_type;location;lat;lon;timestamp;P1;durP1;ratioP1;P2;durP2;ratioP2
13693;SDS011;6919;52.344;14.518;2023-10-13T00:01:58;7.37;;;2.00;;
13693;SDS011;6919;52.344;14.518;2023-10-13T00:04:32;6.50;;;2.33;;
13693;SDS011;6919;52.344;14.518;2023-10-13T00:07:03;4.13;;;1.90;;
13693;SDS011;6919;52.344;14.518;2023-10-13T00:09:36;6.27;;;2.00;;
13693;SDS011;6919;52.344;14.518;2023-10-13T00:12:04;3.77;;;1.83;;
13693;SDS011;6919;52.344;14.518;2023-10-13T00:14:38;7.40;;;2.40;;
13693;SDS011;6919;52.344;14.518;2023-10-13T00:17:07;9.63;;;2.37;;
13693;SDS011;6919;52.344;14.518;2023-10-13T00:19:44;6.73;;;2.57;;
13693;SDS011;6919;52.344;14.518;2023-10-13T00:22:14;3.77;;;2.47;;
13693;SDS011;6919;52.344;14.518;2023-10-13T00:24:43;8.07;;;2.80;;
13693;SDS011;6919;52.344;14.518;2023-10-13T00:27:13;3.00;;;2.00;;
13693;SDS011;6919;52.344;14.518;2023-10-13T00:29:56;7.20;;;2.70;;
13693;SDS011;6919;52.344;14.518;2023-10-13T00:32:47;8.03;;;2.23;;
13693;SDS011;6919;52.344;14.518;2023-10-13T00:35:23;5.00;;;2.30;;
13693;SDS011;6919;52.344;14.518;2023-10-13T00:37:54;5.17;;;2.60;;
13693;SDS011;6919;52.344;14.518;2023-10-13T00:40:24;5.67;;;2.67;;
13693;SDS011;6919;52.344;14.518;2023-10-13T00:43:07;8.43;;;2.67;;
13693;SDS011;6919;52.344;14.518;2023-10-13T00:45:53;9.40;;;3.33;;
13693;SDS011;6919;52.344;14.518;2023-10-13T00:48:24;5.20;;;2.73;;
13693;SDS011;6919;52.344;14.518;2023-10-13T00:50:58;9.40;;;2.43;;
13693;SDS011;6919;52.344;14.518;2023-10-13T00:53:29;4.90;;;2.73;;
13693;SDS011;6919;52.344;14.518;2023-10-13T00:56:00;3.80;;;2.50;;
13693;SDS011;6919;52.344;14.518;2023-10-13T00:58:33;5.13;;;3.10;;
13693;SDS011;6919;52.344;14.518;2023-10-13T01:01:01;4.70;;;2.80;;
13693;SDS011;6919;52.344;14.518;2023-10-13T01:03:45;7.20;;;3.40;;
13693;SDS011;6919;52.344;14.518;2023-10-13T01:06:17;8.03;;;4.33;;
13693;SDS011;6919;52.344;14.518;2023-10-13T01:08:47;10.00;;;3.67;;
13693;SDS011;6919;52.344;14.518;2023-10-13T01:11:18;7.17;;;3.83;;
13693;SDS011;6919;52.344;14.518;2023-10-13T01:13:50;8.50;;;4.90;;
13693;SDS011;6919;52.344;14.518;2023-10-13T01:16:17;7.97;;;4.70;;
13693;SDS011;6919;52.344;14.518;2023-10-13T01:18:50;7.73;;;4.40;;
13693;SDS011;6919;52.344;14.518;2023-10-13T01:21:18;5.60;;;3.60;;
13693;SDS011;6919;52.344;14.518;2023-10-13T01:23:48;8.97;;;4.50;;
13693;SDS011;6919;52.344;14.518;2023-10-13T01:26:17;9.47;;;3.83;;
13693;SDS011;6919;52.344;14.518;2023-10-13T01:28:50;5.63;;;3.47;;
13693;SDS011;6919;52.344;14.518;2023-10-13T01:31:20;7.07;;;3.67;;
13693;SDS011;6919;52.344;14.518;2023-10-13T01:33:53;6.00;;;3.87;;
13693;SDS011;6919;52.344;14.518;2023-10-13T01:36:26;7.93;;;3.90;;
13693;SDS011;6919;52.344;14.518;2023-10-13T01:38:55;7.20;;;3.70;;
13693;SDS011;6919;52.344;14.518;2023-10-13T01:41:27;7.50;;;3.57;;
13693;SDS011;6919;52.344;14.518;2023-10-13T01:43:57;5.13;;;3.47;;
13693;SDS011;6919;52.344;14.518;2023-10-13T01:46:26;4.37;;;3.50;;
13693;SDS011;6919;52.344;14.518;2023-10-13T01:48:54;6.23;;;3.50;;
13693;SDS011;6919;52.344;14.518;2023-10-13T01:51:24;3.97;;;3.40;;
13693;SDS011;6919;52.344;14.518;2023-10-13T01:53:53;4.70;;;3.90;;
13693;SDS011;6919;52.344;14.518;2023-10-13T01:56:24;5.10;;;3.90;;
13693;SDS011;6919;52.344;14.518;2023-10-13T01:58:55;9.20;;;3.60;;
13693;SDS011;6919;52.344;14.518;2023-10-13T02:01:24;6.73;;;3.80;;
13693;SDS011;6919;52.344;14.518;2023-10-13T02:04:01;4.70;;;4.03;;
13693;SDS011;6919;52.344;14.518;2023-10-13T02:06:31;7.27;;;4.40;;
13693;SDS011;6919;52.344;14.518;2023-10-13T02:09:02;6.47;;;3.00;;
13693;SDS011;6919;52.344;14.518;2023-10-13T02:11:40;4.43;;;3.47;;
13693;SDS011;6919;52.344;14.518;2023-10-13T02:14:09;4.57;;;3.10;;
13693;SDS011;6919;52.344;14.518;2023-10-13T02:16:38;6.33;;;3.20;;
13693;SDS011;6919;52.344;14.518;2023-10-13T02:19:06;5.90;;;2.97;;
13693;SDS011;6919;52.344;14.518;2023-10-13T02:21:35;3.90;;;2.83;;
13693;SDS011;6919;52.344;14.518;2023-10-13T02:24:07;4.40;;;2.70;;
13693;SDS011;6919;52.344;14.518;2023-10-13T02:26:39;7.00;;;3.07;;
13693;SDS011;6919;52.344;14.518;2023-10-13T02:29:07;6.27;;;3.30;;
13693;SDS011;6919;52.344;14.518;2023-10-13T02:31:39;3.93;;;2.93;;
13693;SDS011;6919;52.344;14.518;2023-10-13T02:34:09;4.27;;;2.90;;
13693;SDS011;6919;52.344;14.518;2023-10-13T02:36:40;5.27;;;2.90;;
13693;SDS011;6919;52.344;14.518;2023-10-13T02:39:16;3.97;;;3.40;;
13693;SDS011;6919;52.344;14.518;2023-10-13T02:41:53;4.97;;;3.50;;
13693;SDS011;6919;52.344;14.518;2023-10-13T02:44:22;4.50;;;3.40;;
13693;SDS011;6919;52.344;14.518;2023-10-13T02:46:57;4.67;;;3.70;;
13693;SDS011;6919;52.344;14.518;2023-10-13T02:49:26;4.60;;;3.83;;
13693;SDS011;6919;52.344;14.518;2023-10-13T02:51:57;8.67;;;4.83;;
13693;SDS011;6919;52.344;14.518;2023-10-13T02:54:27;7.10;;;4.27;;
13693;SDS011;6919;52.344;14.518;2023-10-13T02:56:57;7.87;;;4.00;;
13693;SDS011;6919;52.344;14.518;2023-10-13T02:59:30;10.33;;;4.40;;
13693;SDS011;6919;52.344;14.518;2023-10-13T03:02:07;7.90;;;4.40;;
13693;SDS011;6919;52.344;14.518;2023-10-13T03:04:44;7.83;;;4.60;;
13693;SDS011;6919;52.344;14.518;2023-10-13T03:07:14;7.37;;;4.70;;
13693;SDS011;6919;52.344;14.518;2023-10-13T03:09:50;10.17;;;5.10;;
13693;SDS011;6919;52.344;14.518;2023-10-13T03:12:19;8.00;;;5.60;;
13693;SDS011;6919;52.344;14.518;2023-10-13T03:14:46;9.20;;;5.30;;
13693;SDS011;6919;52.344;14.518;2023-10-13T03:17:15;13.27;;;5.50;;
13693;SDS011;6919;52.344;14.518;2023-10-13T03:19:45;9.90;;;5.70;;
13693;SDS011;6919;52.344;14.518;2023-10-13T03:22:17;8.80;;;5.57;;
13693;SDS011;6919;52.344;14.518;2023-10-13T03:24:45;10.77;;;5.70;;
13693;SDS011;6919;52.344;14.518;2023-10-13T03:27:16;8.70;;;6.07;;
13693;SDS011;6919;52.344;14.518;2023-10-13T03:29:50;12.07;;;6.47;;
13693;SDS011;6919;52.344;14.518;2023-10-13T03:32:21;12.03;;;6.20;;
13693;SDS011;6919;52.344;14.518;2023-10-13T03:34:53;14.80;;;8.27;;
13693;SDS011;6919;52.344;14.518;2023-10-13T03:37:32;17.03;;;8.97;;
13693;SDS011;6919;52.344;14.518;2023-10-13T03:40:05;20.33;;;9.47;;
13693;SDS011;6919;52.344;14.518;2023-10-13T03:42:59;20.63;;;10.83;;
13693;SDS011;6919;52.344;14.518;2023-10-13T03:45:32;21.50;;;9.50;;
13693;SDS011;6919;52.344;14.518;2023-10-13T03:48:05;20.37;;;11.40;;
13693;SDS011;6919;52.344;14.518;2023-10-13T03:50:55;19.77;;;11.10;;
13693;SDS011;6919;52.344;14.518;2023-10-13T03:53:29;26.83;;;11.23;;
13693;SDS011;6919;52.344;14.518;2023-10-13T03:56:00;19.50;;;11.27;;
13693;SDS011;6919;52.344;14.518;2023-10-13T03:58:40;16.97;;;10.27;;
13693;SDS011;6919;52.344;14.518;2023-10-13T04:01:13;20.93;;;9.90;;
13693;SDS011;6919;52.344;14.518;2023-10-13T04:03:43;19.67;;;10.90;;
13693;SDS011;6919;52.344;14.518;2023-10-13T04:06:30;18.87;;;9.73;;
13693;SDS011;6919;52.344;14.518;2023-10-13T04:09:27;22.73;;;11.70;;
13693;SDS011;6919;52.344;14.518;2023-10-13T04:12:37;20.77;;;11.60;;
13693;SDS011;6919;52.344;14.518;2023-10-13T04:15:20;19.10;;;11.00;;
13693;SDS011;6919;52.344;14.518;2023-10-13T04:17:53;21.57;;;11.17;;
13693;SDS011;6919;52.344;14.518;2023-10-13T04:20:22;20.77;;;12.27;;
13693;SDS011;6919;52.344;14.518;2023-10-13T04:23:04;25.93;;;12.60;;
13693;SDS011;6919;52.344;14.518;2023-10-13T04:25:45;33.30;;;13.13;;
13693;SDS011;6919;52.344;14.518;2023-10-13T04:28:33;22.13;;;12.03;;
13693;SDS011;6919;52.344;14.518;2023-10-13T04:31:05;29.23;;;12.40;;
13693;SDS011;6919;52.344;14.518;2023-10-13T04:33:40;24.03;;;12.47;;
13693;SDS011;6919;52.344;14.518;2023-10-13T04:36:18;26.00;;;14.17;;
13693;SDS011;6919;52.344;14.518;2023-10-13T04:39:03;28.00;;;14.23;;
13693;SDS011;6919;52.344;14.518;2023-10-13T04:41:41;28.97;;;15.60;;
13693;SDS011;6919;52.344;14.518;2023-10-13T04:44:12;28.33;;;14.37;;
13693;SDS011;6919;52.344;14.518;2023-10-13T04:47:15;31.03;;;17.10;;
13693;SDS011;6919;52.344;14.518;2023-10-13T04:49:48;28.03;;;15.40;;
13693;SDS011;6919;52.344;14.518;2023-10-13T04:52:19;39.23;;;15.63;;
13693;SDS011;6919;52.344;14.518;2023-10-13T04:55:17;43.67;;;17.80;;
13693;SDS011;6919;52.344;14.518;2023-10-13T04:58:03;42.10;;;16.57;;
13693;SDS011;6919;52.344;14.518;2023-10-13T05:00:41;34.97;;;14.47;;
13693;SDS011;6919;52.344;14.518;2023-10-13T05:03:40;37.60;;;14.30;;
13693;SDS011;6919;52.344;14.518;2023-10-13T05:06:21;31.13;;;14.67;;
13693;SDS011;6919;52.344;14.518;2023-10-13T05:09:06;34.57;;;14.90;;
13693;SDS011;6919;52.344;14.518;2023-10-13T05:11:52;43.57;;;16.07;;
13693;SDS011;6919;52.344;14.518;2023-10-13T05:14:38;34.57;;;15.20;;
13693;SDS011;6919;52.344;14.518;2023-10-13T05:17:23;29.93;;;14.83;;
13693;SDS011;6919;52.344;14.518;2023-10-13T05:20:11;31.93;;;16.33;;
13693;SDS011;6919;52.344;14.518;2023-10-13T05:22:57;31.93;;;16.20;;
13693;SDS011;6919;52.344;14.518;2023-10-13T05:25:42;34.37;;;16.27;;
13693;SDS011;6919;52.344;14.518;2023-10-13T05:28:28;31.87;;;15.40;;
13693;SDS011;6919;52.344;14.518;2023-10-13T05:31:14;37.77;;;18.20;;
13693;SDS011;6919;52.344;14.518;2023-10-13T05:34:00;38.40;;;15.87;;
13693;SDS011;6919;52.344;14.518;2023-10-13T05:36:47;35.07;;;17.43;;
13693;SDS011;6919;52.344;14.518;2023-10-13T05:39:33;36.33;;;16.93;;
13693;SDS011;6919;52.344;14.518;2023-10-13T05:42:19;35.17;;;16.47;;
13693;SDS011;6919;52.344;14.518;2023-10-13T05:45:05;42.80;;;16.87;;
13693;SDS011;6919;52.344;14.518;2023-10-13T05:48:03;37.73;;;17.50;;
13693;SDS011;6919;52.344;14.518;2023-10-13T05:50:39;38.23;;;17.63;;
13693;SDS011;6919;52.344;14.518;2023-10-13T05:53:40;39.73;;;18.67;;
13693;SDS011;6919;52.344;14.518;2023-10-13T05:56:26;39.20;;;18.13;;
13693;SDS011;6919;52.344;14.518;2023-10-13T05:59:12;32.80;;;17.60;;
13693;SDS011;6919;52.344;14.518;2023-10-13T06:01:58;32.20;;;17.57;;
13693;SDS011;6919;52.344;14.518;2023-10-13T06:04:44;32.57;;;17.03;;
13693;SDS011;6919;52.344;14.518;2023-10-13T06:07:29;30.77;;;16.93;;
13693;SDS011;6919;52.344;14.518;2023-10-13T06:10:13;37.80;;;17.10;;
13693;SDS011;6919;52.344;14.518;2023-10-13T06:12:59;35.63;;;16.13;;
13693;SDS011;6919;52.344;14.518;2023-10-13T06:15:45;32.07;;;16.87;;
13693;SDS011;6919;52.344;14.518;2023-10-13T06:18:31;34.87;;;17.87;;
13693;SDS011;6919;52.344;14.518;2023-10-13T06:21:17;29.83;;;17.10;;
13693;SDS011;6919;52.344;14.518;2023-10-13T06:24:06;33.53;;;16.23;;
13693;SDS011;6919;52.344;14.518;2023-10-13T06:26:53;35.57;;;16.70;;
13693;SDS011;6919;52.344;14.518;2023-10-13T06:29:39;39.93;;;18.47;;
13693;SDS011;6919;52.344;14.518;2023-10-13T06:32:08;35.43;;;17.67;;
13693;SDS011;6919;52.344;14.518;2023-10-13T06:34:40;40.23;;;18.70;;
13693;SDS011;6919;52.344;14.518;2023-10-13T06:37:11;36.83;;;16.20;;
13693;SDS011;6919;52.344;14.518;2023-10-13T06:39:51;34.10;;;16.93;;
13693;SDS011;6919;52.344;14.518;2023-10-13T06:42:24;32.27;;;16.27;;
13693;SDS011;6919;52.344;14.518;2023-10-13T06:44:53;33.50;;;15.70;;
13693;SDS011;6919;52.344;14.518;2023-10-13T06:47:22;34.30;;;17.43;;
13693;SDS011;6919;52.344;14.518;2023-10-13T06:49:50;34.07;;;17.00;;
13693;SDS011;6919;52.344;14.518;2023-10-13T06:52:22;36.50;;;18.20;;
13693;SDS011;6919;52.344;14.518;2023-10-13T06:54:56;33.27;;;15.57;;
13693;SDS011;6919;52.344;14.518;2023-10-13T06:57:31;35.40;;;17.63;;
13693;SDS011;6919;52.344;14.518;2023-10-13T07:00:04;33.87;;;16.93;;
13693;SDS011;6919;52.344;14.518;2023-10-13T07:02:35;32.93;;;16.47;;
13693;SDS011;6919;52.344;14.518;2023-10-13T07:05:04;25.60;;;16.20;;
13693;SDS011;6919;52.344;14.518;2023-10-13T07:07:38;34.63;;;17.47;;
13693;SDS011;6919;52.344;14.518;2023-10-13T07:10:08;27.77;;;17.00;;
13693;SDS011;6919;52.344;14.518;2023-10-13T07:12:39;30.60;;;16.83;;
13693;SDS011;6919;52.344;14.518;2023-10-13T07:15:10;27.27;;;15.77;;
13693;SDS011;6919;52.344;14.518;2023-10-13T07:17:46;29.50;;;15.27;;
13693;SDS011;6919;52.344;14.518;2023-10-13T07:20:21;26.17;;;14.00;;
13693;SDS011;6919;52.344;14.518;2023-10-13T07:22:51;28.93;;;14.77;;
13693;SDS011;6919;52.344;14.518;2023-10-13T07:25:24;24.33;;;14.67;;
13693;SDS011;6919;52.344;14.518;2023-10-13T07:27:54;26.00;;;14.83;;
13693;SDS011;6919;52.344;14.518;2023-10-13T07:30:23;33.30;;;15.43;;
13693;SDS011;6919;52.344;14.518;2023-10-13T07:32:54;27.00;;;15.43;;
13693;SDS011;6919;52.344;14.518;2023-10-13T07:35:26;24.53;;;14.13;;
13693;SDS011;6919;52.344;14.518;2023-10-13T07:37:57;22.27;;;12.47;;
13693;SDS011;6919;52.344;14.518;2023-10-13T07:40:26;17.80;;;9.77;;
13693;SDS011;6919;52.344;14.518;2023-10-13T07:43:08;12.30;;;8.30;;
13693;SDS011;6919;52.344;14.518;2023-10-13T07:45:37;14.93;;;8.20;;
13693;SDS011;6919;52.344;14.518;2023-10-13T07:48:08;10.57;;;7.17;;
13693;SDS011;6919;52.344;14.518;2023-10-13T07:50:46;10.60;;;7.43;;
13693;SDS011;6919;52.344;14.518;2023-10-13T07:53:27;10.47;;;7.00;;
13693;SDS011;6919;52.344;14.518;2023-10-13T07:56:01;9.47;;;6.37;;
13693;SDS011;6919;52.344;14.518;2023-10-13T07:58:33;10.80;;;6.70;;
13693;SDS011;6919;52.344;14.518;2023-10-13T08:01:13;14.57;;;7.13;;
13693;SDS011;6919;52.344;14.518;2023-10-13T08:03:45;12.27;;;6.67;;
13693;SDS011;6919;52.344;14.518;2023-10-13T08:06:14;8.80;;;6.23;;
13693;SDS011;6919;52.344;14.518;2023-10-13T08:08:52;10.70;;;6.13;;
13693;SDS011;6919;52.344;14.518;2023-10-13T08:11:24;13.30;;;6.93;;
13693;SDS011;6919;52.344;14.518;2023-10-13T08:14:00;7.67;;;5.70;;
13693;SDS011;6919;52.344;14.518;2023-10-13T08:16:58;9.00;;;6.00;;
13693;SDS011;6919;52.344;14.518;2023-10-13T08:19:28;13.03;;;5.90;;
13693;SDS011;6919;52.344;14.518;2023-10-13T08:22:08;12.33;;;5.93;;
13693;SDS011;6919;52.344;14.518;2023-10-13T08:24:52;14.87;;;5.53;;
13693;SDS011;6919;52.344;14.518;2023-10-13T08:27:41;10.83;;;5.90;;
13693;SDS011;6919;52.344;14.518;2023-10-13T08:30:18;9.47;;;5.90;;
13693;SDS011;6919;52.344;14.518;2023-10-13T08:32:56;10.30;;;5.37;;
13693;SDS011;6919;52.344;14.518;2023-10-13T08:35:30;11.63;;;5.40;;
13693;SDS011;6919;52.344;14.518;2023-10-13T08:38:02;9.07;;;6.00;;
13693;SDS011;6919;52.344;14.518;2023-10-13T08:40:57;13.37;;;4.57;;
13693;SDS011;6919;52.344;14.518;2023-10-13T08:43:45;10.97;;;5.27;;
13693;SDS011;6919;52.344;14.518;2023-10-13T08:46:20;9.10;;;5.93;;
13693;SDS011;6919;52.344;14.518;2023-10-13T08:48:58;5.93;;;4.53;;
13693;SDS011;6919;52.344;14.518;2023-10-13T08:51:44;9.57;;;5.10;;
13693;SDS011;6919;52.344;14.518;2023-10-13T08:54:15;9.90;;;5.03;;
13693;SDS011;6919;52.344;14.518;2023-10-13T08:57:01;9.40;;;5.10;;
13693;SDS011;6919;52.344;14.518;2023-10-13T09:00:00;6.17;;;3.97;;
13693;SDS011;6919;52.344;14.518;2023-10-13T09:02:43;9.70;;;4.97;;
13693;SDS011;6919;52.344;14.518;2023-10-13T09:05:25;9.03;;;4.30;;
13693;SDS011;6919;52.344;14.518;2023-10-13T09:08:09;9.13;;;4.80;;
13693;SDS011;6919;52.344;14.518;2023-10-13T09:10:42;13.10;;;4.33;;
13693;SDS011;6919;52.344;14.518;2023-10-13T09:13:35;9.00;;;4.50;;
13693;SDS011;6919;52.344;14.518;2023-10-13T09:16:11;7.40;;;4.40;;
13693;SDS011;6919;52.344;14.518;2023-10-13T09:18:50;9.50;;;4.93;;
13693;SDS011;6919;52.344;14.518;2023-10-13T09:21:19;7.53;;;4.40;;
13693;SDS011;6919;52.344;14.518;2023-10-13T09:24:16;6.60;;;3.97;;
13693;SDS011;6919;52.344;14.518;2023-10-13T09:26:48;10.33;;;4.37;;
13693;SDS011;6919;52.344;14.518;2023-10-13T09:29:20;6.73;;;4.30;;
13693;SDS011;6919;52.344;14.518;2023-10-13T09:31:57;7.90;;;5.03;;
13693;SDS011;6919;52.344;14.518;2023-10-13T09:34:31;6.40;;;4.67;;
13693;SDS011;6919;52.344;14.518;2023-10-13T09:37:07;9.23;;;4.10;;
13693;SDS011;6919;52.344;14.518;2023-10-13T09:39:37;4.73;;;4.10;;
13693;SDS011;6919;52.344;14.518;2023-10-13T09:42:14;5.70;;;4.20;;
13693;SDS011;6919;52.344;14.518;2023-10-13T09:44:45;8.00;;;4.00;;
13693;SDS011;6919;52.344;14.518;2023-10-13T09:47:20;7.37;;;4.30;;
13693;SDS011;6919;52.344;14.518;2023-10-13T09:50:00;6.73;;;4.13;;
13693;SDS011;6919;52.344;14.518;2023-10-13T09:52:40;6.87;;;4.40;;
13693;SDS011;6919;52.344;14.518;2023-10-13T09:55:13;7.87;;;4.50;;
13693;SDS011;6919;52.344;14.518;2023-10-13T09:57:54;5.53;;;3.73;;
13693;SDS011;6919;52.344;14.518;2023-10-13T10:00:36;5.53;;;3.90;;
13693;SDS011;6919;52.344;14.518;2023-10-13T10:03:13;9.03;;;4.00;;
13693;SDS011;6919;52.344;14.518;2023-10-13T10:05:57;6.07;;;4.10;;
13693;SDS011;6919;52.344;14.518;2023-10-13T10:08:32;8.20;;;4.87;;
13693;SDS011;6919;52.344;14.518;2023-10-13T10:11:07;5.87;;;4.10;;
13693;SDS011;6919;52.344;14.518;2023-10-13T10:13:57;6.53;;;4.60;;
13693;SDS011;6919;52.344;14.518;2023-10-13T10:16:39;7.33;;;4.83;;
13693;SDS011;6919;52.344;14.518;2023-10-13T10:19:18;11.27;;;5.27;;
13693;SDS011;6919;52.344;14.518;2023-10-13T10:21:47;14.23;;;4.97;;
13693;SDS011;6919;52.344;14.518;2023-10-13T10:24:16;11.93;;;4.73;;
13693;SDS011;6919;52.344;14.518;2023-10-13T10:26:56;5.90;;;3.87;;
13693;SDS011;6919;52.344;14.518;2023-10-13T10:29:24;6.17;;;3.53;;
13693;SDS011;6919;52.344;14.518;2023-10-13T10:31:53;10.17;;;3.73;;
13693;SDS011;6919;52.344;14.518;2023-10-13T10:34:21;8.67;;;3.73;;
13693;SDS011;6919;52.344;14.518;2023-10-13T10:37:01;5.93;;;3.77;;
13693;SDS011;6919;52.344;14.518;2023-10-13T10:39:35;6.23;;;4.03;;
13693;SDS011;6919;52.344;14.518;2023-10-13T10:42:12;8.03;;;4.20;;
13693;SDS011;6919;52.344;14.518;2023-10-13T10:44:43;13.13;;;3.13;;
13693;SDS011;6919;52.344;14.518;2023-10-13T10:47:14;6.03;;;2.80;;
13693;SDS011;6919;52.344;14.518;2023-10-13T10:49:57;4.90;;;3.70;;
13693;SDS011;6919;52.344;14.518;2023-10-13T10:52:27;9.93;;;3.60;;
13693;SDS011;6919;52.344;14.518;2023-10-13T10:55:03;5.30;;;3.70;;
13693;SDS011;6919;52.344;14.518;2023-10-13T10:57:37;4.97;;;3.23;;
13693;SDS011;6919;52.344;14.518;2023-10-13T11:00:17;3.90;;;2.50;;
13693;SDS011;6919;52.344;14.518;2023-10-13T11:02:53;5.13;;;3.20;;
13693;SDS011;6919;52.344;14.518;2023-10-13T11:05:22;5.90;;;3.60;;
13693;SDS011;6919;52.344;14.518;2023-10-13T11:08:00;4.03;;;3.23;;
13693;SDS011;6919;52.344;14.518;2023-10-13T11:10:35;7.70;;;2.90;;
13693;SDS011;6919;52.344;14.518;2023-10-13T11:13:05;6.07;;;2.93;;
13693;SDS011;6919;52.344;14.518;2023-10-13T11:15:48;4.33;;;3.10;;
13693;SDS011;6919;52.344;14.518;2023-10-13T11:18:17;5.73;;;3.20;;
13693;SDS011;6919;52.344;14.518;2023-10-13T11:21:01;6.57;;;2.80;;
13693;SDS011;6919;52.344;14.518;2023-10-13T11:23:34;4.50;;;2.83;;
13693;SDS011;6919;52.344;14.518;2023-10-13T11:26:03;5.83;;;2.90;;
13693;SDS011;6919;52.344;14.518;2023-10-13T11:28:32;5.17;;;2.40;;
13693;SDS011;6919;52.344;14.518;2023-10-13T11:31:01;5.90;;;3.17;;
13693;SDS011;6919;52.344;14.518;2023-10-13T11:33:43;4.10;;;2.80;;
13693;SDS011;6919;52.344;14.518;2023-10-13T11:36:13;7.63;;;2.97;;
13693;SDS011;6919;52.344;14.518;2023-10-13T11:38:45;4.53;;;3.10;;
13693;SDS011;6919;52.344;14.518;2023-10-13T11:41:17;7.73;;;3.53;;
13693;SDS011;6919;52.344;14.518;2023-10-13T11:43:46;8.07;;;2.97;;
13693;SDS011;6919;52.344;14.518;2023-10-13T11:46:41;3.83;;;3.03;;
13693;SDS011;6919;52.344;14.518;2023-10-13T11:49:54;3.17;;;2.87;;
13693;SDS011;6919;52.344;14.518;2023-10-13T11:52:24;4.27;;;3.77;;
13693;SDS011;6919;52.344;14.518;2023-10-13T11:54:57;5.83;;;3.23;;
13693;SDS011;6919;52.344;14.518;2023-10-13T11:57:26;14.23;;;8.97;;
13693;SDS011;6919;52.344;14.518;2023-10-13T11:59:54;8.37;;;4.63;;
13693;SDS011;6919;52.344;14.518;2023-10-13T12:02:42;7.17;;;4.63;;
13693;SDS011;6919;52.344;14.518;2023-10-13T12:05:28;8.40;;;3.93;;
13693;SDS011;6919;52.344;14.518;2023-10-13T12:08:15;8.93;;;3.93;;
13693;SDS011;6919;52.344;14.518;2023-10-13T12:10:50;5.97;;;3.50;;
13693;SDS011;6919;52.344;14.518;2023-10-13T12:13:26;7.43;;;3.93;;
13693;SDS011;6919;52.344;14.518;2023-10-13T12:15:55;5.13;;;4.00;;
13693;SDS011;6919;52.344;14.518;2023-10-13T12:18:23;5.77;;;3.50;;
13693;SDS011;6919;52.344;14.518;2023-10-13T12:20:54;7.60;;;4.00;;
13693;SDS011;6919;52.344;14.518;2023-10-13T12:23:23;9.63;;;3.70;;
13693;SDS011;6919;52.344;14.518;2023-10-13T12:25:59;6.57;;;3.70;;
13693;SDS011;6919;52.344;14.518;2023-10-13T12:28:32;5.00;;;4.10;;
13693;SDS011;6919;52.344;14.518;2023-10-13T12:31:07;8.37;;;3.57;;
13693;SDS011;6919;52.344;14.518;2023-10-13T12:33:38;6.20;;;3.20;;
13693;SDS011;6919;52.344;14.518;2023-10-13T12:36:07;8.63;;;4.40;;
13693;SDS011;6919;52.344;14.518;2023-10-13T12:38:56;6.83;;;3.43;;
13693;SDS011;6919;52.344;14.518;2023-10-13T12:41:43;7.43;;;3.67;;
13693;SDS011;6919;52.344;14.518;2023-10-13T12:44:29;10.57;;;3.57;;
13693;SDS011;6919;52.344;14.518;2023-10-13T12:47:16;5.53;;;3.50;;
13693;SDS011;6919;52.344;14.518;2023-10-13T12:50:02;8.63;;;3.27;;
13693;SDS011;6919;52.344;14.518;2023-10-13T12:52:50;6.73;;;3.10;;
13693;SDS011;6919;52.344;14.518;2023-10-13T12:55:18;5.70;;;3.40;;
13693;SDS011;6919;52.344;14.518;2023-10-13T12:57:52;7.80;;;3.40;;
13693;SDS011;6919;52.344;14.518;2023-10-13T13:00:20;5.13;;;3.13;;
13693;SDS011;6919;52.344;14.518;2023-10-13T13:02:59;9.90;;;3.40;;
13693;SDS011;6919;52.344;14.518;2023-10-13T13:05:37;6.90;;;3.87;;
13693;SDS011;6919;52.344;14.518;2023-10-13T13:08:11;7.03;;;4.63;;
13693;SDS011;6919;52.344;14.518;2023-10-13T13:10:48;10.70;;;4.50;;
13693;SDS011;6919;52.344;14.518;2023-10-13T13:13:20;7.97;;;3.97;;
13693;SDS011;6919;52.344;14.518;2023-10-13T13:15:51;9.40;;;3.73;;
13693;SDS011;6919;52.344;14.518;2023-10-13T13:18:20;7.83;;;3.63;;
13693;SDS011;6919;52.344;14.518;2023-10-13T13:20:48;10.13;;;3.60;;
13693;SDS011;6919;52.344;14.518;2023-10-13T13:23:20;7.60;;;4.17;;
13693;SDS011;6919;52.344;14.518;2023-10-13T13:25:52;8.77;;;3.90;;
13693;SDS011;6919;52.344;14.518;2023-10-13T13:28:25;11.40;;;3.33;;
13693;SDS011;6919;52.344;14.518;2023-10-13T13:30:55;8.07;;;2.90;;
13693;SDS011;6919;52.344;14.518;2023-10-13T13:33:24;6.30;;;3.40;;
13693;SDS011;6919;52.344;14.518;2023-10-13T13:35:53;10.80;;;4.23;;
13693;SDS011;6919;52.344;14.518;2023-10-13T13:38:26;10.37;;;4.17;;
13693;SDS011;6919;52.344;14.518;2023-10-13T13:40:58;7.70;;;4.23;;
13693;SDS011;6919;52.344;14.518;2023-10-13T13:43:30;9.87;;;4.10;;
13693;SDS011;6919;52.344;14.518;2023-10-13T13:46:17;10.47;;;3.93;;
13693;SDS011;6919;52.344;14.518;2023-10-13T13:48:51;12.90;;;4.33;;
13693;SDS011;6919;52.344;14.518;2023-10-13T13:51:24;8.43;;;3.03;;
13693;SDS011;6919;52.344;14.518;2023-10-13T13:53:58;9.47;;;3.23;;
13693;SDS011;6919;52.344;14.518;2023-10-13T13:56:31;6.40;;;2.97;;
13693;SDS011;6919;52.344;14.518;2023-10-13T13:59:06;12.20;;;3.60;;
13693;SDS011;6919;52.344;14.518;2023-10-13T14:01:35;8.17;;;3.20;;
13693;SDS011;6919;52.344;14.518;2023-10-13T14:04:06;5.57;;;3.00;;
13693;SDS011;6919;52.344;14.518;2023-10-13T14:06:35;6.57;;;3.10;;
13693;SDS011;6919;52.344;14.518;2023-10-13T14:09:04;19.57;;;3.87;;
13693;SDS011;6919;52.344;14.518;2023-10-13T14:11:41;10.50;;;3.70;;
13693;SDS011;6919;52.344;14.518;2023-10-13T14:14:28;7.37;;;3.53;;
13693;SDS011;6919;52.344;14.518;2023-10-13T14:17:00;6.47;;;3.07;;
13693;SDS011;6919;52.344;14.518;2023-10-13T14:19:34;8.57;;;3.70;;
13693;SDS011;6919;52.344;14.518;2023-10-13T14:22:07;7.20;;;3.50;;
13693;SDS011;6919;52.344;14.518;2023-10-13T14:24:39;11.60;;;3.40;;
13693;SDS011;6919;52.344;14.518;2023-10-13T14:27:18;14.60;;;3.30;;
13693;SDS011;6919;52.344;14.518;2023-10-13T14:29:50;6.27;;;3.13;;
13693;SDS011;6919;52.344;14.518;2023-10-13T14:32:20;8.40;;;3.97;;
13693;SDS011;6919;52.344;14.518;2023-10-13T14:34:54;7.53;;;3.37;;
13693;SDS011;6919;52.344;14.518;2023-10-13T14:37:23;11.60;;;4.10;;
13693;SDS011;6919;52.344;14.518;2023-10-13T14:39:56;9.87;;;3.53;;
13693;SDS011;6919;52.344;14.518;2023-10-13T14:42:26;9.30;;;4.20;;
13693;SDS011;6919;52.344;14.518;2023-10-13T14:45:03;13.73;;;2.90;;
13693;SDS011;6919;52.344;14.518;2023-10-13T14:47:39;17.53;;;3.73;;
13693;SDS011;6919;52.344;14.518;2023-10-13T14:50:08;11.00;;;3.60;;
13693;SDS011;6919;52.344;14.518;2023-10-13T14:52:43;11.47;;;3.30;;
13693;SDS011;6919;52.344;14.518;2023-10-13T14:55:11;11.60;;;3.43;;
13693;SDS011;6919;52.344;14.518;2023-10-13T14:57:46;9.97;;;3.60;;
13693;SDS011;6919;52.344;14.518;2023-10-13T15:00:17;10.60;;;3.93;;
13693;SDS011;6919;52.344;14.518;2023-10-13T15:02:52;11.57;;;3.53;;
13693;SDS011;6919;52.344;14.518;2023-10-13T15:05:21;11.93;;;3.60;;
13693;SDS011;6919;52.344;14.518;2023-10-13T15:07:50;9.77;;;3.67;;
13693;SDS011;6919;52.344;14.518;2023-10-13T15:10:18;9.20;;;3.73;;
13693;SDS011;6919;52.344;14.518;2023-10-13T15:12:46;6.63;;;3.67;;
13693;SDS011;6919;52.344;14.518;2023-10-13T15:15:17;17.30;;;4.57;;
13693;SDS011;6919;52.344;14.518;2023-10-13T15:17:46;6.00;;;3.50;;
13693;SDS011;6919;52.344;14.518;2023-10-13T15:20:16;11.07;;;3.47;;
13693;SDS011;6919;52.344;14.518;2023-10-13T15:22:45;10.47;;;3.50;;
13693;SDS011;6919;52.344;14.518;2023-10-13T15:25:15;10.07;;;3.77;;
13693;SDS011;6919;52.344;14.518;2023-10-13T15:27:57;13.33;;;3.80;;
13693;SDS011;6919;52.344;14.518;2023-10-13T15:30:30;10.27;;;3.93;;